Time;durP1;ratioP1;P1;durP2;ratioP2;P2;SDS_P1;SDS_P2;PMS_P1;PMS_P2;Temp;Humidity;BMP_temperature;BMP_pressure;BME280_temperature;BME280_humidity;BME280_pressure;Samples;Min_cycle;Max_cycle;Signal;HPM_P1;HPM_P2
2023/08/22 00:01:21;;;;;;;6.20;3.42;;;;;;;;;;5091096;28;20222;-77
2023/08/22 00:03:48;;;;;;;7.97;3.58;;;;;;;;;;5092120;28;20221;-78
2023/08/22 00:06:15;;;;;;;5.47;3.85;;;;;;;;;;5091607;28;20457;-77
2023/08/22 00:08:42;;;;;;;5.32;3.50;;;;;;;;;;5091587;28;20602;-77
2023/08/22 00:11:10;;;;;;;8.50;3.95;;;;;;;;;;5091336;28;20222;-77
2023/08/22 00:13:37;;;;;;;8.52;3.90;;;;;;;;;;5091259;28;20260;-77
2023/08/22 00:16:04;;;;;;;7.50;3.78;;;;;;;;;;5091308;28;20226;-77
2023/08/22 00:18:33;;;;;;;6.68;3.90;;;;;;;;;;5091226;28;20255;-77
2023/08/22 00:21:00;;;;;;;9.35;4.35;;;;;;;;;;5091655;28;20230;-78
2023/08/22 00:23:28;;;;;;;4.93;3.38;;;;;;;;;;5091602;28;20248;-77
2023/08/22 00:25:55;;;;;;;7.50;3.80;;;;;;;;;;5090918;28;20313;-76
2023/08/22 00:28:23;;;;;;;9.60;4.22;;;;;;;;;;5091149;28;20186;-77
2023/08/22 00:30:53;;;;;;;7.53;3.65;;;;;;;;;;5091584;28;20237;-77
2023/08/22 00:33:20;;;;;;;8.43;4.35;;;;;;;;;;5090984;28;20284;-78
2023/08/22 00:35:49;;;;;;;6.43;4.20;;;;;;;;;;5091194;28;20236;-77
2023/08/22 00:38:17;;;;;;;7.18;4.20;;;;;;;;;;5090939;28;20190;-77
2023/08/22 00:40:44;;;;;;;6.85;4.00;;;;;;;;;;5091140;28;20241;-77
2023/08/22 00:43:11;;;;;;;6.30;3.80;;;;;;;;;;5091225;28;20266;-77
2023/08/22 00:45:38;;;;;;;5.82;4.13;;;;;;;;;;5090925;28;20309;-77
2023/08/22 00:48:06;;;;;;;7.28;4.53;;;;;;;;;;5091031;28;20697;-76
2023/08/22 00:50:34;;;;;;;8.65;4.50;;;;;;;;;;5091427;28;20285;-77
2023/08/22 00:53:03;;;;;;;6.13;4.15;;;;;;;;;;5090027;28;20256;-76
2023/08/22 00:55:30;;;;;;;6.70;4.18;;;;;;;;;;5090927;28;20217;-75
2023/08/22 00:57:57;;;;;;;6.55;4.35;;;;;;;;;;5091168;28;20250;-78
2023/08/22 01:00:24;;;;;;;7.55;4.50;;;;;;;;;;5091140;28;20199;-77
2023/08/22 01:02:51;;;;;;;6.78;4.03;;;;;;;;;;5090330;28;20229;-77
2023/08/22 01:05:19;;;;;;;7.68;4.32;;;;;;;;;;5090562;28;20305;-78
2023/08/22 01:07:48;;;;;;;6.85;4.13;;;;;;;;;;5090836;28;20222;-78
2023/08/22 01:10:19;;;;;;;8.93;4.18;;;;;;;;;;5094796;28;20217;-78
2023/08/22 01:12:49;;;;;;;7.40;4.53;;;;;;;;;;5094360;28;20675;-78
2023/08/22 01:15:19;;;;;;;6.95;4.25;;;;;;;;;;5094538;28;20230;-77
2023/08/22 01:17:46;;;;;;;8.65;4.30;;;;;;;;;;5094927;28;20211;-78
2023/08/22 01:20:14;;;;;;;8.45;4.60;;;;;;;;;;5095447;28;20218;-76
2023/08/22 01:22:43;;;;;;;7.80;4.63;;;;;;;;;;5094193;28;20281;-77
2023/08/22 01:25:10;;;;;;;6.93;4.57;;;;;;;;;;5094406;28;20194;-77
2023/08/22 01:27:41;;;;;;;6.65;4.55;;;;;;;;;;5094313;28;20614;-77
2023/08/22 01:30:12;;;;;;;6.85;4.25;;;;;;;;;;5094592;28;20278;-78
2023/08/22 01:32:42;;;;;;;6.00;4.38;;;;;;;;;;5094697;28;20233;-77
2023/08/22 01:35:11;;;;;;;10.20;4.47;;;;;;;;;;5094156;28;20289;-77
2023/08/22 01:37:39;;;;;;;9.70;4.70;;;;;;;;;;5094095;28;20226;-77
2023/08/22 01:40:10;;;;;;;7.22;4.75;;;;;;;;;;5094488;28;20269;-77
2023/08/22 01:42:37;;;;;;;8.23;4.57;;;;;;;;;;5094064;28;20198;-77
2023/08/22 01:45:04;;;;;;;6.45;4.55;;;;;;;;;;5094472;28;20214;-76
2023/08/22 01:47:32;;;;;;;9.13;4.68;;;;;;;;;;5093946;28;20301;-77
2023/08/22 01:49:59;;;;;;;8.55;4.78;;;;;;;;;;5094179;28;20673;-78
2023/08/22 01:52:26;;;;;;;8.13;5.00;;;;;;;;;;5093607;28;20283;-77
2023/08/22 01:54:53;;;;;;;7.43;4.90;;;;;;;;;;5094204;28;20266;-78
2023/08/22 01:57:22;;;;;;;9.98;5.05;;;;;;;;;;5093565;28;20199;-78
2023/08/22 01:59:49;;;;;;;7.82;5.00;;;;;;;;;;5092680;28;20285;-77
2023/08/22 02:02:16;;;;;;;8.70;5.28;;;;;;;;;;5094025;28;20252;-77
2023/08/22 02:04:43;;;;;;;7.95;5.55;;;;;;;;;;5085848;28;20285;-76
2023/08/22 02:07:10;;;;;;;10.15;5.35;;;;;;;;;;5079032;28;20317;-76
2023/08/22 02:09:38;;;;;;;8.95;5.63;;;;;;;;;;5092284;28;20735;-77
2023/08/22 02:12:05;;;;;;;6.68;5.40;;;;;;;;;;5093696;28;20244;-77
2023/08/22 02:14:33;;;;;;;8.65;5.55;;;;;;;;;;5093021;28;20285;-77
2023/08/22 02:17:01;;;;;;;7.80;5.47;;;;;;;;;;5092915;28;20218;-77
2023/08/22 02:19:28;;;;;;;7.72;5.63;;;;;;;;;;5093065;28;20229;-77
2023/08/22 02:21:55;;;;;;;7.25;5.35;;;;;;;;;;5092879;28;20241;-78
2023/08/22 02:24:22;;;;;;;9.85;5.30;;;;;;;;;;5093505;28;20285;-77
2023/08/22 02:26:49;;;;;;;9.25;5.90;;;;;;;;;;5093003;28;20222;-78
2023/08/22 02:29:16;;;;;;;9.65;6.60;;;;;;;;;;5093710;28;20239;-77
2023/08/22 02:31:45;;;;;;;10.95;6.30;;;;;;;;;;5093703;28;20225;-77
2023/08/22 02:34:12;;;;;;;9.27;5.97;;;;;;;;;;5092798;28;20679;-77
2023/08/22 02:36:39;;;;;;;9.88;6.20;;;;;;;;;;5092969;28;20703;-77
2023/08/22 02:39:07;;;;;;;8.75;6.28;;;;;;;;;;5093143;28;20237;-78
2023/08/22 02:41:35;;;;;;;7.50;6.05;;;;;;;;;;5093284;28;20201;-77
2023/08/22 02:44:02;;;;;;;9.13;6.50;;;;;;;;;;5093347;28;20274;-77
2023/08/22 02:46:29;;;;;;;9.55;6.13;;;;;;;;;;5092781;28;20279;-77
2023/08/22 02:48:58;;;;;;;10.77;6.50;;;;;;;;;;5092864;28;20226;-77
2023/08/22 02:51:25;;;;;;;8.43;6.50;;;;;;;;;;5092824;28;20190;-77
2023/08/22 02:53:52;;;;;;;10.60;6.18;;;;;;;;;;5093175;28;20325;-78
2023/08/22 02:56:19;;;;;;;9.48;6.40;;;;;;;;;;5092169;28;20210;-78
2023/08/22 02:58:46;;;;;;;9.85;6.10;;;;;;;;;;5092630;28;20290;-78
2023/08/22 03:01:13;;;;;;;11.23;6.72;;;;;;;;;;5092504;28;20224;-78
2023/08/22 03:03:42;;;;;;;10.10;6.53;;;;;;;;;;5092870;28;20298;-77
2023/08/22 03:06:10;;;;;;;10.57;6.30;;;;;;;;;;5091760;28;20312;-77
2023/08/22 03:08:38;;;;;;;10.70;7.00;;;;;;;;;;5092758;28;20248;-78
2023/08/22 03:11:05;;;;;;;11.82;7.10;;;;;;;;;;5092414;28;20199;-77
2023/08/22 03:13:32;;;;;;;11.18;6.75;;;;;;;;;;5092293;28;20277;-77
2023/08/22 03:15:59;;;;;;;17.02;6.55;;;;;;;;;;5092701;28;20289;-77
2023/08/22 03:18:26;;;;;;;13.48;6.85;;;;;;;;;;5091728;28;20201;-77
2023/08/22 03:20:56;;;;;;;11.75;6.97;;;;;;;;;;5092119;28;20289;-78
2023/08/22 03:23:24;;;;;;;8.73;6.20;;;;;;;;;;5091909;28;20633;-78
2023/08/22 03:25:58;;;;;;;11.63;7.07;;;;;;;;;;5091882;28;21235;-77
2023/08/22 03:28:26;;;;;;;9.00;6.55;;;;;;;;;;5092436;28;20193;-78
2023/08/22 03:30:57;;;;;;;10.77;6.53;;;;;;;;;;5092533;28;20194;-77
2023/08/22 03:33:25;;;;;;;9.95;6.63;;;;;;;;;;5091715;28;20597;-78
2023/08/22 03:35:53;;;;;;;13.25;6.75;;;;;;;;;;5092024;28;20229;-78
2023/08/22 03:38:20;;;;;;;8.27;6.18;;;;;;;;;;5091843;28;20289;-77
2023/08/22 03:40:49;;;;;;;8.48;6.32;;;;;;;;;;5091995;28;20730;-76
2023/08/22 03:43:16;;;;;;;13.68;6.65;;;;;;;;;;5091950;28;20202;-77
2023/08/22 03:45:44;;;;;;;9.48;6.30;;;;;;;;;;5091619;28;20194;-77
2023/08/22 03:48:11;;;;;;;10.27;6.28;;;;;;;;;;5091635;28;20205;-77
2023/08/22 03:50:39;;;;;;;12.65;6.70;;;;;;;;;;5092047;28;20282;-77
2023/08/22 03:53:07;;;;;;;10.43;6.72;;;;;;;;;;5091915;28;20707;-77
2023/08/22 03:55:34;;;;;;;10.90;6.65;;;;;;;;;;5091507;28;20413;-76
2023/08/22 03:58:03;;;;;;;11.18;6.65;;;;;;;;;;5091948;28;20281;-78
2023/08/22 04:00:30;;;;;;;10.13;6.50;;;;;;;;;;5092031;28;20674;-78
2023/08/22 04:02:58;;;;;;;9.13;6.75;;;;;;;;;;5090582;28;20198;-76
2023/08/22 04:05:25;;;;;;;10.57;6.82;;;;;;;;;;5091965;28;20222;-77
2023/08/22 04:07:52;;;;;;;9.10;6.18;;;;;;;;;;5091685;28;20265;-77
2023/08/22 04:10:20;;;;;;;11.27;6.22;;;;;;;;;;5091901;28;20198;-77
2023/08/22 04:12:47;;;;;;;8.63;6.30;;;;;;;;;;5090964;28;20730;-77
2023/08/22 04:15:16;;;;;;;8.68;6.45;;;;;;;;;;5091180;28;20682;-77
2023/08/22 04:17:43;;;;;;;11.75;6.80;;;;;;;;;;5091188;28;20203;-77
2023/08/22 04:20:11;;;;;;;12.25;6.68;;;;;;;;;;5091066;28;20199;-77
2023/08/22 04:22:39;;;;;;;12.25;6.55;;;;;;;;;;5091196;28;20218;-76
2023/08/22 04:25:07;;;;;;;10.15;6.75;;;;;;;;;;5091543;28;20198;-77
2023/08/22 04:27:34;;;;;;;11.55;6.68;;;;;;;;;;5091877;28;20249;-76
2023/08/22 04:30:02;;;;;;;10.38;6.38;;;;;;;;;;5091362;28;20277;-77
2023/08/22 04:32:30;;;;;;;16.08;6.78;;;;;;;;;;5091092;28;20226;-76
2023/08/22 04:34:58;;;;;;;12.02;7.03;;;;;;;;;;5090887;28;20207;-77
2023/08/22 04:37:25;;;;;;;15.10;7.05;;;;;;;;;;5091296;28;20289;-77
2023/08/22 04:39:52;;;;;;;11.55;6.38;;;;;;;;;;5091141;28;20655;-78
2023/08/22 04:42:20;;;;;;;15.63;6.50;;;;;;;;;;5091107;28;20616;-77
2023/08/22 04:44:47;;;;;;;11.63;6.30;;;;;;;;;;5093522;28;20281;-78
2023/08/22 04:47:14;;;;;;;12.02;6.00;;;;;;;;;;5095625;28;20264;-76
2023/08/22 04:49:42;;;;;;;13.27;6.82;;;;;;;;;;5095798;28;20194;-77
2023/08/22 04:52:10;;;;;;;12.65;6.93;;;;;;;;;;5095208;28;20222;-77
2023/08/22 04:54:37;;;;;;;11.65;6.75;;;;;;;;;;5095034;28;20265;-77
2023/08/22 04:57:04;;;;;;;10.50;6.65;;;;;;;;;;5095298;28;20285;-77
2023/08/22 04:59:31;;;;;;;10.95;6.28;;;;;;;;;;5094639;28;20289;-76
2023/08/22 05:01:58;;;;;;;14.50;6.88;;;;;;;;;;5095540;28;20202;-77
2023/08/22 05:04:26;;;;;;;12.98;6.13;;;;;;;;;;5094766;28;20222;-76
2023/08/22 05:06:54;;;;;;;12.32;7.07;;;;;;;;;;5095027;28;20230;-77
2023/08/22 05:09:21;;;;;;;15.45;7.13;;;;;;;;;;5094633;28;20226;-77
2023/08/22 05:11:48;;;;;;;16.92;6.60;;;;;;;;;;5094899;28;20237;-77
2023/08/22 05:14:16;;;;;;;13.13;6.88;;;;;;;;;;5094220;28;20237;-77
2023/08/22 05:16:43;;;;;;;14.82;7.07;;;;;;;;;;5094617;28;20237;-77
2023/08/22 05:19:10;;;;;;;12.27;6.78;;;;;;;;;;5095025;28;20206;-76
2023/08/22 05:21:37;;;;;;;13.25;6.80;;;;;;;;;;5094638;28;20236;-77
2023/08/22 05:24:07;;;;;;;8.95;6.45;;;;;;;;;;5094786;28;20278;-78
2023/08/22 05:26:34;;;;;;;13.05;7.15;;;;;;;;;;5094713;28;20205;-76
2023/08/22 05:29:02;;;;;;;12.02;6.70;;;;;;;;;;5094472;28;20297;-78
2023/08/22 05:31:29;;;;;;;9.50;6.15;;;;;;;;;;5094484;28;20226;-76
2023/08/22 05:33:56;;;;;;;11.70;6.43;;;;;;;;;;5094166;28;20252;-77
2023/08/22 05:36:23;;;;;;;14.60;6.90;;;;;;;;;;5094531;28;20195;-76
2023/08/22 05:38:50;;;;;;;9.20;6.43;;;;;;;;;;5093967;28;20222;-77
2023/08/22 05:41:19;;;;;;;12.88;6.78;;;;;;;;;;5094272;28;20222;-77
2023/08/22 05:43:46;;;;;;;9.32;6.45;;;;;;;;;;5093527;28;20277;-76
2023/08/22 05:46:13;;;;;;;10.88;6.10;;;;;;;;;;5094301;28;20281;-77
2023/08/22 05:48:40;;;;;;;11.23;6.57;;;;;;;;;;5094100;28;20320;-77
2023/08/22 05:51:07;;;;;;;8.82;6.20;;;;;;;;;;5094069;28;20187;-77
2023/08/22 05:53:35;;;;;;;12.93;6.20;;;;;;;;;;5093881;28;20317;-77
2023/08/22 05:56:02;;;;;;;8.85;6.35;;;;;;;;;;5093948;28;20233;-77
2023/08/22 05:58:30;;;;;;;9.98;6.55;;;;;;;;;;5093587;28;20679;-76
2023/08/22 06:00:57;;;;;;;9.35;6.32;;;;;;;;;;5093705;28;20226;-77
2023/08/22 06:03:25;;;;;;;13.52;6.40;;;;;;;;;;5093865;28;20286;-78
2023/08/22 06:05:52;;;;;;;9.43;6.03;;;;;;;;;;5093645;28;20214;-76
2023/08/22 06:08:19;;;;;;;10.93;6.68;;;;;;;;;;5093945;28;20261;-77
2023/08/22 06:10:46;;;;;;;8.95;5.72;;;;;;;;;;5093647;28;20195;-76
2023/08/22 06:13:14;;;;;;;10.27;6.10;;;;;;;;;;5073092;28;20737;-77
2023/08/22 06:15:42;;;;;;;13.07;6.03;;;;;;;;;;5073668;28;20206;-77
2023/08/22 06:18:09;;;;;;;14.70;6.82;;;;;;;;;;5089067;28;20202;-77
2023/08/22 06:20:39;;;;;;;9.90;5.57;;;;;;;;;;5093638;28;20648;-77
2023/08/22 06:23:06;;;;;;;9.40;5.25;;;;;;;;;;5093424;28;20199;-77
2023/08/22 06:25:33;;;;;;;8.40;5.15;;;;;;;;;;5093844;28;20226;-77
2023/08/22 06:28:00;;;;;;;8.25;5.25;;;;;;;;;;5092257;28;20221;-77
2023/08/22 06:30:28;;;;;;;7.78;4.63;;;;;;;;;;5093680;28;20225;-76
2023/08/22 06:32:56;;;;;;;10.00;4.47;;;;;;;;;;5093416;28;20199;-78
2023/08/22 06:35:24;;;;;;;8.40;4.50;;;;;;;;;;5092938;28;20270;-78
2023/08/22 06:37:52;;;;;;;5.40;3.83;;;;;;;;;;5090404;28;20666;-76
2023/08/22 06:40:20;;;;;;;6.65;4.10;;;;;;;;;;5092726;28;20198;-78
2023/08/22 06:42:47;;;;;;;7.93;4.20;;;;;;;;;;5093156;28;20187;-78
2023/08/22 06:45:14;;;;;;;7.80;4.00;;;;;;;;;;5090933;28;20229;-78
2023/08/22 06:47:41;;;;;;;6.90;3.72;;;;;;;;;;5082352;28;20221;-78
2023/08/22 06:50:10;;;;;;;7.40;4.05;;;;;;;;;;5089273;28;20604;-78
2023/08/22 06:52:37;;;;;;;6.20;3.40;;;;;;;;;;5075798;28;20291;-78
2023/08/22 06:55:05;;;;;;;6.05;3.72;;;;;;;;;;5076738;28;20235;-78
2023/08/22 06:57:32;;;;;;;5.10;3.28;;;;;;;;;;5084081;28;20293;-78
2023/08/22 06:59:59;;;;;;;6.22;3.25;;;;;;;;;;5075995;28;20355;-78
2023/08/22 07:02:26;;;;;;;5.32;3.30;;;;;;;;;;5090458;28;20198;-78
2023/08/22 07:04:53;;;;;;;5.65;3.50;;;;;;;;;;5092685;28;20273;-76
2023/08/22 07:07:22;;;;;;;4.45;3.03;;;;;;;;;;5096448;28;20264;-78
2023/08/22 07:09:51;;;;;;;8.20;3.53;;;;;;;;;;5092525;28;20202;-77
2023/08/22 07:12:18;;;;;;;4.97;3.33;;;;;;;;;;5081595;28;20207;-78
2023/08/22 07:14:46;;;;;;;5.45;3.40;;;;;;;;;;5092454;28;20201;-78
2023/08/22 07:17:13;;;;;;;6.25;3.38;;;;;;;;;;5091391;28;20281;-76
2023/08/22 07:19:40;;;;;;;6.22;3.67;;;;;;;;;;5098150;28;20203;-77
2023/08/22 07:22:07;;;;;;;4.30;3.42;;;;;;;;;;5093902;28;20230;-78
2023/08/22 07:24:36;;;;;;;6.72;3.70;;;;;;;;;;5102755;28;20224;-78
2023/08/22 07:27:03;;;;;;;7.63;3.50;;;;;;;;;;5096625;28;20694;-78
2023/08/22 07:29:30;;;;;;;6.10;3.50;;;;;;;;;;5090999;28;20187;-77
2023/08/22 07:31:59;;;;;;;6.85;3.50;;;;;;;;;;5091902;28;20313;-77
2023/08/22 07:34:26;;;;;;;5.07;3.30;;;;;;;;;;5092353;28;20673;-78
2023/08/22 07:36:54;;;;;;;6.05;3.47;;;;;;;;;;5085179;28;20730;-77
2023/08/22 07:39:21;;;;;;;6.97;3.28;;;;;;;;;;5090527;28;20209;-76
2023/08/22 07:41:50;;;;;;;5.05;3.38;;;;;;;;;;5105103;28;20808;-76
2023/08/22 07:44:17;;;;;;;6.75;3.40;;;;;;;;;;5090540;28;20210;-78
2023/08/22 07:46:44;;;;;;;8.27;3.38;;;;;;;;;;5075977;28;20276;-78
2023/08/22 07:49:11;;;;;;;7.18;3.67;;;;;;;;;;5092710;28;20222;-77
2023/08/22 07:51:38;;;;;;;5.03;3.08;;;;;;;;;;5089112;28;20226;-79
2023/08/22 07:54:06;;;;;;;4.85;3.00;;;;;;;;;;5087315;28;20299;-79
2023/08/22 07:56:34;;;;;;;5.60;2.85;;;;;;;;;;5084816;28;20198;-79
2023/08/22 07:59:02;;;;;;;3.97;2.80;;;;;;;;;;5088097;28;20212;-79
2023/08/22 08:01:29;;;;;;;10.88;3.10;;;;;;;;;;5089263;28;20301;-79
2023/08/22 08:03:57;;;;;;;6.40;2.83;;;;;;;;;;5090785;28;20201;-78
2023/08/22 08:06:24;;;;;;;7.03;2.90;;;;;;;;;;5092049;28;20190;-78
2023/08/22 08:08:51;;;;;;;6.15;2.97;;;;;;;;;;5090968;28;20226;-77
2023/08/22 08:11:19;;;;;;;8.52;3.13;;;;;;;;;;5090802;28;20222;-78
2023/08/22 08:13:46;;;;;;;4.38;2.45;;;;;;;;;;5091404;28;20201;-78
2023/08/22 08:16:14;;;;;;;7.18;3.05;;;;;;;;;;5091783;28;20289;-77
2023/08/22 08:18:41;;;;;;;3.70;2.50;;;;;;;;;;5089649;28;20205;-78
2023/08/22 08:21:09;;;;;;;4.78;2.83;;;;;;;;;;5091390;28;20244;-79
2023/08/22 08:23:36;;;;;;;6.68;2.75;;;;;;;;;;5091289;28;20226;-78
2023/08/22 08:26:05;;;;;;;3.90;2.63;;;;;;;;;;5092052;28;20222;-78
2023/08/22 08:28:33;;;;;;;8.05;3.28;;;;;;;;;;5091528;28;20295;-78
2023/08/22 08:31:00;;;;;;;7.65;3.08;;;;;;;;;;5091409;28;20252;-77
2023/08/22 08:33:28;;;;;;;7.90;2.90;;;;;;;;;;5091287;28;20293;-79
2023/08/22 08:35:55;;;;;;;5.60;2.90;;;;;;;;;;5091354;28;20656;-78
2023/08/22 08:38:23;;;;;;;6.40;2.80;;;;;;;;;;5091432;28;20203;-78
2023/08/22 08:40:50;;;;;;;9.15;2.90;;;;;;;;;;5091109;28;20236;-79
2023/08/22 08:43:19;;;;;;;6.93;3.00;;;;;;;;;;5091167;28;20191;-79
2023/08/22 08:45:46;;;;;;;6.63;2.92;;;;;;;;;;5091326;28;20233;-78
2023/08/22 08:48:13;;;;;;;7.93;2.45;;;;;;;;;;5091055;28;20697;-79
2023/08/22 08:50:42;;;;;;;3.25;2.70;;;;;;;;;;5091530;28;20277;-78
2023/08/22 08:53:10;;;;;;;5.57;2.50;;;;;;;;;;5090660;28;20234;-78
2023/08/22 08:55:37;;;;;;;5.07;2.60;;;;;;;;;;5091306;28;20260;-78
2023/08/22 08:58:04;;;;;;;6.60;2.80;;;;;;;;;;5091163;28;20229;-78
2023/08/22 09:00:32;;;;;;;11.73;2.60;;;;;;;;;;5091253;28;20198;-80
2023/08/22 09:03:00;;;;;;;5.72;2.67;;;;;;;;;;5091397;28;20202;-79
2023/08/22 09:05:29;;;;;;;4.05;2.20;;;;;;;;;;5091302;28;20281;-79
2023/08/22 09:07:58;;;;;;;5.78;2.40;;;;;;;;;;5090988;28;20744;-79
2023/08/22 09:10:34;;;;;;;5.75;2.35;;;;;;;;;;5091099;28;20627;-79
2023/08/22 09:13:03;;;;;;;3.47;2.20;;;;;;;;;;5090678;28;20224;-79
2023/08/22 09:15:31;;;;;;;2.47;2.05;;;;;;;;;;5091204;28;20198;-78
2023/08/22 09:17:58;;;;;;;5.25;2.35;;;;;;;;;;5091156;28;20226;-79
2023/08/22 09:20:26;;;;;;;5.00;2.20;;;;;;;;;;5090949;28;20702;-79
2023/08/22 09:22:53;;;;;;;3.70;2.30;;;;;;;;;;5070698;28;20197;-79
2023/08/22 09:25:22;;;;;;;6.63;2.33;;;;;;;;;;5070627;28;20290;-79
2023/08/22 09:27:53;;;;;;;7.53;2.60;;;;;;;;;;5071006;28;20199;-79
2023/08/22 09:30:25;;;;;;;5.20;2.38;;;;;;;;;;5073164;28;20211;-78
2023/08/22 09:32:59;;;;;;;6.00;2.33;;;;;;;;;;5074391;28;20230;-78
2023/08/22 09:35:30;;;;;;;4.53;1.92;;;;;;;;;;5074087;28;20196;-78
2023/08/22 09:38:06;;;;;;;7.13;2.45;;;;;;;;;;5074311;28;20289;-79
2023/08/22 09:40:35;;;;;;;4.22;2.30;;;;;;;;;;5074354;28;20202;-78
2023/08/22 09:43:02;;;;;;;3.10;2.15;;;;;;;;;;5074730;28;20195;-79
2023/08/22 09:45:31;;;;;;;6.60;2.30;;;;;;;;;;5074590;28;20669;-79
2023/08/22 09:47:59;;;;;;;5.95;2.10;;;;;;;;;;5073904;28;20202;-80
2023/08/22 09:50:28;;;;;;;4.40;2.00;;;;;;;;;;5073884;28;20578;-78
2023/08/22 09:52:56;;;;;;;4.05;2.47;;;;;;;;;;5073740;28;20226;-79
2023/08/22 09:55:23;;;;;;;5.40;2.40;;;;;;;;;;5075210;28;20234;-79
2023/08/22 09:57:52;;;;;;;4.50;2.03;;;;;;;;;;5074306;28;20289;-79
2023/08/22 10:00:19;;;;;;;5.03;2.60;;;;;;;;;;5074080;28;20246;-80
2023/08/22 10:02:48;;;;;;;4.97;2.30;;;;;;;;;;5077883;28;20237;-78
2023/08/22 10:05:15;;;;;;;3.15;1.90;;;;;;;;;;5074724;28;20302;-78
2023/08/22 10:07:43;;;;;;;4.82;2.30;;;;;;;;;;5074155;28;20233;-79
2023/08/22 10:10:11;;;;;;;4.70;2.22;;;;;;;;;;5080791;28;20230;-79
2023/08/22 10:12:39;;;;;;;3.58;2.20;;;;;;;;;;5093978;28;20225;-78
2023/08/22 10:15:08;;;;;;;3.80;2.50;;;;;;;;;;5093919;28;20195;-79
2023/08/22 10:17:36;;;;;;;4.40;2.25;;;;;;;;;;5093869;28;20289;-80
2023/08/22 10:20:06;;;;;;;6.40;2.60;;;;;;;;;;5093556;28;20198;-80
2023/08/22 10:22:34;;;;;;;3.78;2.42;;;;;;;;;;5094604;28;20201;-78
2023/08/22 10:25:05;;;;;;;4.97;2.75;;;;;;;;;;5093508;28;20837;-78
2023/08/22 10:27:33;;;;;;;5.03;2.38;;;;;;;;;;5093877;28;20729;-79
2023/08/22 10:30:20;;;;;;;5.75;2.10;;;;;;;;;;5093694;28;20222;-78
2023/08/22 10:33:03;;;;;;;3.90;2.28;;;;;;;;;;5093509;28;20723;-79
2023/08/22 10:35:30;;;;;;;4.75;2.17;;;;;;;;;;5093610;28;20222;-79
2023/08/22 10:37:58;;;;;;;5.03;2.22;;;;;;;;;;5093631;28;20198;-79
2023/08/22 10:40:27;;;;;;;4.18;2.00;;;;;;;;;;5092992;28;20736;-79
2023/08/22 10:43:04;;;;;;;4.60;2.15;;;;;;;;;;5092738;28;20222;-79
2023/08/22 10:45:38;;;;;;;5.20;2.10;;;;;;;;;;5093365;28;20198;-78
2023/08/22 10:48:12;;;;;;;7.32;2.13;;;;;;;;;;5093043;28;20646;-80
2023/08/22 10:50:42;;;;;;;2.78;1.90;;;;;;;;;;5093621;28;20286;-79
2023/08/22 10:53:19;;;;;;;3.63;1.95;;;;;;;;;;5092931;28;20619;-80
2023/08/22 10:55:46;;;;;;;2.97;2.00;;;;;;;;;;5093446;28;20198;-80
2023/08/22 10:58:28;;;;;;;4.10;1.90;;;;;;;;;;5093324;28;20290;-79
2023/08/22 11:00:57;;;;;;;4.95;1.80;;;;;;;;;;5092587;28;20290;-80
2023/08/22 11:03:24;;;;;;;3.75;2.00;;;;;;;;;;5092644;28;20194;-80
2023/08/22 11:05:51;;;;;;;5.43;2.05;;;;;;;;;;5093140;28;20218;-80
2023/08/22 11:08:20;;;;;;;4.03;1.92;;;;;;;;;;5092809;28;20194;-80
2023/08/22 11:10:47;;;;;;;3.72;1.80;;;;;;;;;;5092844;28;20237;-80
2023/08/22 11:13:15;;;;;;;4.97;1.98;;;;;;;;;;5092837;28;20230;-80
2023/08/22 11:15:42;;;;;;;3.60;2.15;;;;;;;;;;5092752;28;20202;-81
2023/08/22 11:18:10;;;;;;;4.28;2.22;;;;;;;;;;5092246;28;20203;-80
2023/08/22 11:20:38;;;;;;;4.70;2.00;;;;;;;;;;5092980;28;20229;-80
2023/08/22 11:23:06;;;;;;;3.10;1.98;;;;;;;;;;5092316;28;20272;-80
2023/08/22 11:25:33;;;;;;;4.25;1.90;;;;;;;;;;5092756;28;20190;-78
2023/08/22 11:28:01;;;;;;;3.63;1.55;;;;;;;;;;5092790;28;20273;-81
2023/08/22 11:30:28;;;;;;;5.10;1.90;;;;;;;;;;5092555;28;20280;-78
2023/08/22 11:32:55;;;;;;;3.80;1.60;;;;;;;;;;5092225;28;20205;-79
2023/08/22 11:35:24;;;;;;;7.28;4.75;;;;;;;;;;5092311;28;20289;-80
2023/08/22 11:37:51;;;;;;;6.55;4.68;;;;;;;;;;5092082;28;20233;-81
2023/08/22 11:40:18;;;;;;;5.57;3.05;;;;;;;;;;5092314;28;20242;-80
2023/08/22 11:42:46;;;;;;;3.72;2.55;;;;;;;;;;5092493;28;20199;-79
2023/08/22 11:45:14;;;;;;;7.07;4.30;;;;;;;;;;5092086;28;20222;-80
2023/08/22 11:47:43;;;;;;;5.13;2.15;;;;;;;;;;5091975;28;20573;-79
2023/08/22 11:50:13;;;;;;;3.83;1.52;;;;;;;;;;5092114;28;20287;-79
2023/08/22 11:52:43;;;;;;;2.95;1.63;;;;;;;;;;5091817;28;20201;-79
2023/08/22 11:55:10;;;;;;;5.40;1.95;;;;;;;;;;5091907;28;20659;-78
2023/08/22 11:57:39;;;;;;;8.70;1.98;;;;;;;;;;5092186;28;20194;-79
2023/08/22 12:00:07;;;;;;;3.20;1.65;;;;;;;;;;5091791;28;20701;-79
2023/08/22 12:02:35;;;;;;;3.65;1.40;;;;;;;;;;5092368;28;20203;-78
2023/08/22 12:05:02;;;;;;;3.05;1.45;;;;;;;;;;5091562;28;20240;-79
2023/08/22 12:07:29;;;;;;;3.92;1.60;;;;;;;;;;5092264;28;20214;-79
2023/08/22 12:10:02;;;;;;;3.65;1.80;;;;;;;;;;5091802;28;20301;-80
2023/08/22 12:12:30;;;;;;;3.30;1.65;;;;;;;;;;5091773;28;20809;-79
2023/08/22 12:14:59;;;;;;;4.07;1.80;;;;;;;;;;5091144;28;20729;-79
2023/08/22 12:17:26;;;;;;;3.92;1.90;;;;;;;;;;5091508;28;20198;-80
2023/08/22 12:19:53;;;;;;;3.65;2.50;;;;;;;;;;5091578;28;20199;-79
2023/08/22 12:22:21;;;;;;;5.40;2.72;;;;;;;;;;5091956;28;20285;-79
2023/08/22 12:24:49;;;;;;;3.83;1.83;;;;;;;;;;5091569;28;20226;-79
2023/08/22 12:27:18;;;;;;;6.07;1.90;;;;;;;;;;5092002;28;20230;-80
2023/08/22 12:29:46;;;;;;;4.53;2.00;;;;;;;;;;5090956;28;20279;-80
2023/08/22 12:32:13;;;;;;;3.75;1.90;;;;;;;;;;5091679;28;20198;-79
2023/08/22 12:34:40;;;;;;;4.82;2.10;;;;;;;;;;5091745;28;20678;-80
2023/08/22 12:37:08;;;;;;;4.30;2.00;;;;;;;;;;5091482;28;20677;-80
2023/08/22 12:39:35;;;;;;;4.13;2.28;;;;;;;;;;5090237;28;20260;-80
2023/08/22 12:42:02;;;;;;;5.05;1.80;;;;;;;;;;5091393;28;20194;-79
2023/08/22 12:44:32;;;;;;;3.80;1.90;;;;;;;;;;5091430;28;20623;-80
2023/08/22 12:46:59;;;;;;;4.15;1.92;;;;;;;;;;5091522;28;20259;-79
2023/08/22 12:49:27;;;;;;;7.07;1.92;;;;;;;;;;5091465;28;20318;-79
2023/08/22 12:51:54;;;;;;;5.10;1.90;;;;;;;;;;5091253;28;20201;-80
2023/08/22 12:54:21;;;;;;;3.50;1.90;;;;;;;;;;5091078;28;20321;-78
2023/08/22 12:56:48;;;;;;;5.32;1.85;;;;;;;;;;5091370;28;20241;-79
2023/08/22 12:59:15;;;;;;;4.30;2.13;;;;;;;;;;5090888;28;20630;-79
2023/08/22 13:01:44;;;;;;;3.90;1.70;;;;;;;;;;5091436;28;20255;-79
2023/08/22 13:04:12;;;;;;;3.55;1.73;;;;;;;;;;5091537;28;20685;-80
2023/08/22 13:06:39;;;;;;;4.25;1.85;;;;;;;;;;5095822;28;20195;-79
2023/08/22 13:09:10;;;;;;;3.90;1.55;;;;;;;;;;5095265;28;20302;-80
2023/08/22 13:11:38;;;;;;;4.63;1.98;;;;;;;;;;5094681;28;20576;-80
2023/08/22 13:14:06;;;;;;;7.80;1.88;;;;;;;;;;5094841;28;20194;-79
2023/08/22 13:16:33;;;;;;;4.35;2.22;;;;;;;;;;5095131;28;20210;-80
2023/08/22 13:19:01;;;;;;;2.92;1.98;;;;;;;;;;5094790;28;20293;-79
2023/08/22 13:21:29;;;;;;;5.40;1.65;;;;;;;;;;5094752;28;20285;-80
2023/08/22 13:23:56;;;;;;;3.67;1.70;;;;;;;;;;5094909;28;20285;-79
2023/08/22 13:26:23;;;;;;;3.45;1.60;;;;;;;;;;5094716;28;20638;-80
2023/08/22 13:28:51;;;;;;;3.22;1.63;;;;;;;;;;5094388;28;20217;-80
2023/08/22 13:31:19;;;;;;;3.72;1.40;;;;;;;;;;5094957;28;20190;-80
2023/08/22 13:33:47;;;;;;;3.72;1.50;;;;;;;;;;5094685;28;20195;-80
2023/08/22 13:36:15;;;;;;;4.35;1.70;;;;;;;;;;5094851;28;20218;-80
2023/08/22 13:38:42;;;;;;;4.82;1.63;;;;;;;;;;5094409;28;20289;-79
2023/08/22 13:41:10;;;;;;;3.28;1.70;;;;;;;;;;5094730;28;20319;-80
2023/08/22 13:43:38;;;;;;;3.67;1.90;;;;;;;;;;5094676;28;20230;-79
2023/08/22 13:46:06;;;;;;;4.22;1.98;;;;;;;;;;5095748;28;20290;-80
2023/08/22 13:48:33;;;;;;;3.90;1.95;;;;;;;;;;5094701;28;20195;-79
2023/08/22 13:51:00;;;;;;;4.20;1.60;;;;;;;;;;5094789;28;20313;-80
2023/08/22 13:53:31;;;;;;;3.15;1.30;;;;;;;;;;5094439;28;20312;-80
2023/08/22 13:55:58;;;;;;;2.92;1.60;;;;;;;;;;5094393;28;20194;-80
2023/08/22 13:58:25;;;;;;;8.82;2.10;;;;;;;;;;5094522;28;20279;-80
2023/08/22 14:00:52;;;;;;;5.65;1.83;;;;;;;;;;5094564;28;20294;-79
2023/08/22 14:03:19;;;;;;;3.25;2.20;;;;;;;;;;5094304;28;20297;-79
2023/08/22 14:05:46;;;;;;;3.60;2.10;;;;;;;;;;5093896;28;20234;-79
2023/08/22 14:08:14;;;;;;;4.97;1.80;;;;;;;;;;5094462;28;20198;-78
2023/08/22 14:10:42;;;;;;;7.07;1.80;;;;;;;;;;5093399;28;20222;-79
2023/08/22 14:13:09;;;;;;;4.00;1.50;;;;;;;;;;5092306;28;20282;-78
2023/08/22 14:15:37;;;;;;;2.45;1.20;;;;;;;;;;5093344;28;20349;-78
2023/08/22 14:18:04;;;;;;;5.45;1.90;;;;;;;;;;5094127;28;20617;-77
2023/08/22 14:20:31;;;;;;;3.70;1.60;;;;;;;;;;5093599;28;20692;-78
2023/08/22 14:22:58;;;;;;;3.50;1.80;;;;;;;;;;5093557;28;21086;-79
2023/08/22 14:25:25;;;;;;;2.55;1.48;;;;;;;;;;5093262;28;20190;-77
2023/08/22 14:27:55;;;;;;;3.00;1.33;;;;;;;;;;5093926;28;20222;-77
2023/08/22 14:30:22;;;;;;;2.40;1.20;;;;;;;;;;5093674;28;20257;-77
2023/08/22 14:32:50;;;;;;;3.47;1.60;;;;;;;;;;5093546;28;20198;-78
2023/08/22 14:35:17;;;;;;;3.17;1.30;;;;;;;;;;5093541;28;20222;-78
2023/08/22 14:37:44;;;;;;;2.05;1.10;;;;;;;;;;5093647;28;20190;-78
2023/08/22 14:40:11;;;;;;;2.50;1.23;;;;;;;;;;5093030;28;20202;-78
2023/08/22 14:42:39;;;;;;;3.58;1.20;;;;;;;;;;5093565;28;20287;-79
2023/08/22 14:45:08;;;;;;;2.50;1.10;;;;;;;;;;5093262;28;20234;-77